sensor_id;sensor_type;location;lat;lon;timestamp;temperature;humidity
22917;DHT22;11624;53.250;7.456;2023-05-24T00:00:44;14.23;52.66
22917;DHT22;11624;53.250;7.456;2023-05-24T00:03:14;14.15;52.70
22917;DHT22;11624;53.250;7.456;2023-05-24T00:05:45;14.11;52.70
22917;DHT22;11624;53.250;7.456;2023-05-24T00:08:13;14.05;52.77
22917;DHT22;11624;53.250;7.456;2023-05-24T00:10:42;13.98;52.94
22917;DHT22;11624;53.250;7.456;2023-05-24T00:13:10;13.95;52.98
22917;DHT22;11624;53.250;7.456;2023-05-24T00:15:39;13.92;53.07
22917;DHT22;11624;53.250;7.456;2023-05-24T00:18:07;13.86;53.44
22917;DHT22;11624;53.250;7.456;2023-05-24T00:20:37;13.84;53.81
22917;DHT22;11624;53.250;7.456;2023-05-24T00:23:05;13.85;53.72
22917;DHT22;11624;53.250;7.456;2023-05-24T00:25:34;13.83;53.62
22917;DHT22;11624;53.250;7.456;2023-05-24T00:28:02;13.82;53.55
22917;DHT22;11624;53.250;7.456;2023-05-24T00:30:31;13.79;53.54
22917;DHT22;11624;53.250;7.456;2023-05-24T00:32:59;13.78;53.69
22917;DHT22;11624;53.250;7.456;2023-05-24T00:35:29;13.76;53.88
22917;DHT22;11624;53.250;7.456;2023-05-24T00:37:59;13.76;54.33
22917;DHT22;11624;53.250;7.456;2023-05-24T00:40:27;13.82;54.62
22917;DHT22;11624;53.250;7.456;2023-05-24T00:42:55;13.90;54.83
22917;DHT22;11624;53.250;7.456;2023-05-24T00:45:23;14.00;54.74
22917;DHT22;11624;53.250;7.456;2023-05-24T00:47:51;14.09;54.50
22917;DHT22;11624;53.250;7.456;2023-05-24T00:50:20;14.15;54.23
22917;DHT22;11624;53.250;7.456;2023-05-24T00:52:48;14.15;54.52
22917;DHT22;11624;53.250;7.456;2023-05-24T00:55:19;14.20;54.51
22917;DHT22;11624;53.250;7.456;2023-05-24T00:57:47;14.25;54.37
22917;DHT22;11624;53.250;7.456;2023-05-24T01:00:18;14.27;54.35
22917;DHT22;11624;53.250;7.456;2023-05-24T01:02:48;14.29;54.44
22917;DHT22;11624;53.250;7.456;2023-05-24T01:05:17;14.34;54.14
22917;DHT22;11624;53.250;7.456;2023-05-24T01:07:53;14.33;53.97
22917;DHT22;11624;53.250;7.456;2023-05-24T01:10:31;14.34;53.67
22917;DHT22;11624;53.250;7.456;2023-05-24T01:13:04;14.35;53.84
22917;DHT22;11624;53.250;7.456;2023-05-24T01:15:41;14.35;53.63
22917;DHT22;11624;53.250;7.456;2023-05-24T01:18:16;14.39;54.04
22917;DHT22;11624;53.250;7.456;2023-05-24T01:20:53;14.51;54.32
22917;DHT22;11624;53.250;7.456;2023-05-24T01:23:31;14.56;54.26
22917;DHT22;11624;53.250;7.456;2023-05-24T01:26:26;14.63;54.15
22917;DHT22;11624;53.250;7.456;2023-05-24T01:29:01;14.73;54.20
22917;DHT22;11624;53.250;7.456;2023-05-24T01:31:30;14.80;54.26
22917;DHT22;11624;53.250;7.456;2023-05-24T01:34:00;14.83;54.30
22917;DHT22;11624;53.250;7.456;2023-05-24T01:36:28;14.88;54.24
22917;DHT22;11624;53.250;7.456;2023-05-24T01:38:56;14.91;54.31
22917;DHT22;11624;53.250;7.456;2023-05-24T01:41:35;14.96;53.87
22917;DHT22;11624;53.250;7.456;2023-05-24T01:44:14;14.98;53.69
22917;DHT22;11624;53.250;7.456;2023-05-24T01:46:49;15.04;53.79
22917;DHT22;11624;53.250;7.456;2023-05-24T01:49:21;15.09;53.12
22917;DHT22;11624;53.250;7.456;2023-05-24T01:51:56;15.13;53.50
22917;DHT22;11624;53.250;7.456;2023-05-24T01:54:27;15.18;53.37
22917;DHT22;11624;53.250;7.456;2023-05-24T01:56:58;15.15;53.53
22917;DHT22;11624;53.250;7.456;2023-05-24T01:59:30;15.23;53.39
22917;DHT22;11624;53.250;7.456;2023-05-24T02:02:00;15.33;53.37
22917;DHT22;11624;53.250;7.456;2023-05-24T02:04:28;15.39;53.25
22917;DHT22;11624;53.250;7.456;2023-05-24T02:06:57;15.49;53.14
22917;DHT22;11624;53.250;7.456;2023-05-24T02:09:25;15.54;52.97
22917;DHT22;11624;53.250;7.456;2023-05-24T02:11:53;15.60;52.80
22917;DHT22;11624;53.250;7.456;2023-05-24T02:14:22;15.62;52.67
22917;DHT22;11624;53.250;7.456;2023-05-24T02:16:52;15.62;52.48
22917;DHT22;11624;53.250;7.456;2023-05-24T02:19:25;15.68;52.45
22917;DHT22;11624;53.250;7.456;2023-05-24T02:21:53;15.67;52.41
22917;DHT22;11624;53.250;7.456;2023-05-24T02:24:21;15.66;52.47
22917;DHT22;11624;53.250;7.456;2023-05-24T02:26:49;15.65;52.51
22917;DHT22;11624;53.250;7.456;2023-05-24T02:29:17;15.66;52.44
22917;DHT22;11624;53.250;7.456;2023-05-24T02:31:45;15.66;52.44
22917;DHT22;11624;53.250;7.456;2023-05-24T02:34:17;15.68;52.52
22917;DHT22;11624;53.250;7.456;2023-05-24T02:36:45;15.68;52.60
22917;DHT22;11624;53.250;7.456;2023-05-24T02:39:14;15.72;52.61
22917;DHT22;11624;53.250;7.456;2023-05-24T02:41:42;15.73;52.58
22917;DHT22;11624;53.250;7.456;2023-05-24T02:44:10;15.74;52.57
22917;DHT22;11624;53.250;7.456;2023-05-24T02:46:39;15.76;52.54
22917;DHT22;11624;53.250;7.456;2023-05-24T02:49:07;15.76;52.42
22917;DHT22;11624;53.250;7.456;2023-05-24T02:51:37;15.75;52.40
22917;DHT22;11624;53.250;7.456;2023-05-24T02:54:05;15.73;52.51
22917;DHT22;11624;53.250;7.456;2023-05-24T02:56:33;15.73;52.54
22917;DHT22;11624;53.250;7.456;2023-05-24T02:59:03;15.73;52.64
22917;DHT22;11624;53.250;7.456;2023-05-24T03:01:32;15.80;52.72
22917;DHT22;11624;53.250;7.456;2023-05-24T03:04:01;15.85;52.65
22917;DHT22;11624;53.250;7.456;2023-05-24T03:06:30;15.87;52.65
22917;DHT22;11624;53.250;7.456;2023-05-24T03:08:59;15.86;52.68
22917;DHT22;11624;53.250;7.456;2023-05-24T03:11:28;15.83;52.87
22917;DHT22;11624;53.250;7.456;2023-05-24T03:13:56;15.89;52.95
22917;DHT22;11624;53.250;7.456;2023-05-24T03:16:24;15.93;52.95
22917;DHT22;11624;53.250;7.456;2023-05-24T03:18:53;15.93;52.97
22917;DHT22;11624;53.250;7.456;2023-05-24T03:21:22;15.97;52.85
22917;DHT22;11624;53.250;7.456;2023-05-24T03:23:51;15.98;52.76
22917;DHT22;11624;53.250;7.456;2023-05-24T03:26:20;16.00;52.53
22917;DHT22;11624;53.250;7.456;2023-05-24T03:28:49;15.93;52.57
22917;DHT22;11624;53.250;7.456;2023-05-24T03:31:20;15.87;52.66
22917;DHT22;11624;53.250;7.456;2023-05-24T03:33:50;15.87;52.73
22917;DHT22;11624;53.250;7.456;2023-05-24T03:36:18;15.86;52.85
22917;DHT22;11624;53.250;7.456;2023-05-24T03:38:47;15.87;52.75
22917;DHT22;11624;53.250;7.456;2023-05-24T03:41:16;15.88;52.68
22917;DHT22;11624;53.250;7.456;2023-05-24T03:43:45;15.92;52.56
22917;DHT22;11624;53.250;7.456;2023-05-24T03:46:15;15.91;52.48
22917;DHT22;11624;53.250;7.456;2023-05-24T03:48:44;15.90;52.45
22917;DHT22;11624;53.250;7.456;2023-05-24T03:51:12;15.87;52.62
22917;DHT22;11624;53.250;7.456;2023-05-24T03:53:40;15.92;52.62
22917;DHT22;11624;53.250;7.456;2023-05-24T03:56:08;16.00;52.62
22917;DHT22;11624;53.250;7.456;2023-05-24T03:58:36;16.07;52.62
22917;DHT22;11624;53.250;7.456;2023-05-24T04:01:06;16.16;52.67
22917;DHT22;11624;53.250;7.456;2023-05-24T04:03:36;16.27;52.48
22917;DHT22;11624;53.250;7.456;2023-05-24T04:06:05;16.31;52.43
22917;DHT22;11624;53.250;7.456;2023-05-24T04:08:33;16.35;52.30
22917;DHT22;11624;53.250;7.456;2023-05-24T04:11:02;16.35;52.30
22917;DHT22;11624;53.250;7.456;2023-05-24T04:13:30;16.44;52.10
22917;DHT22;11624;53.250;7.456;2023-05-24T04:15:58;16.50;52.17
22917;DHT22;11624;53.250;7.456;2023-05-24T04:18:28;16.55;52.01
22917;DHT22;11624;53.250;7.456;2023-05-24T04:20:56;16.63;51.87
22917;DHT22;11624;53.250;7.456;2023-05-24T04:23:24;16.69;51.85
22917;DHT22;11624;53.250;7.456;2023-05-24T04:25:52;16.73;51.79
22917;DHT22;11624;53.250;7.456;2023-05-24T04:28:20;16.78;51.54
22917;DHT22;11624;53.250;7.456;2023-05-24T04:30:50;16.84;51.47
22917;DHT22;11624;53.250;7.456;2023-05-24T04:33:19;16.89;51.33
22917;DHT22;11624;53.250;7.456;2023-05-24T04:35:49;16.94;51.36
22917;DHT22;11624;53.250;7.456;2023-05-24T04:38:18;17.01;51.42
22917;DHT22;11624;53.250;7.456;2023-05-24T04:40:47;17.13;51.37
22917;DHT22;11624;53.250;7.456;2023-05-24T04:43:15;17.21;51.44
22917;DHT22;11624;53.250;7.456;2023-05-24T04:45:43;17.29;51.32
22917;DHT22;11624;53.250;7.456;2023-05-24T04:48:11;17.37;51.08
22917;DHT22;11624;53.250;7.456;2023-05-24T04:50:39;17.41;50.82
22917;DHT22;11624;53.250;7.456;2023-05-24T04:53:09;17.43;50.59
22917;DHT22;11624;53.250;7.456;2023-05-24T04:55:37;17.44;50.56
22917;DHT22;11624;53.250;7.456;2023-05-24T04:58:06;17.43;50.37
22917;DHT22;11624;53.250;7.456;2023-05-24T05:00:36;17.45;50.41
22917;DHT22;11624;53.250;7.456;2023-05-24T05:03:04;17.48;50.21
22917;DHT22;11624;53.250;7.456;2023-05-24T05:05:32;17.48;50.14
22917;DHT22;11624;53.250;7.456;2023-05-24T05:08:01;17.50;50.06
22917;DHT22;11624;53.250;7.456;2023-05-24T05:10:30;17.54;49.95
22917;DHT22;11624;53.250;7.456;2023-05-24T05:12:58;17.55;49.99
22917;DHT22;11624;53.250;7.456;2023-05-24T05:15:27;17.62;49.91
22917;DHT22;11624;53.250;7.456;2023-05-24T05:17:55;17.68;49.76
22917;DHT22;11624;53.250;7.456;2023-05-24T05:20:23;17.66;49.66
22917;DHT22;11624;53.250;7.456;2023-05-24T05:22:51;17.72;49.48
22917;DHT22;11624;53.250;7.456;2023-05-24T05:25:20;17.74;49.49
22917;DHT22;11624;53.250;7.456;2023-05-24T05:27:49;17.76;49.51
22917;DHT22;11624;53.250;7.456;2023-05-24T05:30:17;17.75;49.60
22917;DHT22;11624;53.250;7.456;2023-05-24T05:32:45;17.74;49.76
22917;DHT22;11624;53.250;7.456;2023-05-24T05:35:14;17.78;49.62
22917;DHT22;11624;53.250;7.456;2023-05-24T05:37:42;17.82;49.46
22917;DHT22;11624;53.250;7.456;2023-05-24T05:40:11;17.84;49.26
22917;DHT22;11624;53.250;7.456;2023-05-24T05:42:39;17.87;49.27
22917;DHT22;11624;53.250;7.456;2023-05-24T05:45:09;17.95;49.29
22917;DHT22;11624;53.250;7.456;2023-05-24T05:47:37;18.07;49.31
22917;DHT22;11624;53.250;7.456;2023-05-24T05:50:06;18.18;48.88
22917;DHT22;11624;53.250;7.456;2023-05-24T05:52:35;18.22;48.75
22917;DHT22;11624;53.250;7.456;2023-05-24T05:55:03;18.29;48.70
22917;DHT22;11624;53.250;7.456;2023-05-24T05:57:32;18.32;48.22
22917;DHT22;11624;53.250;7.456;2023-05-24T06:00:00;18.37;48.18
22917;DHT22;11624;53.250;7.456;2023-05-24T06:02:38;18.40;47.89
22917;DHT22;11624;53.250;7.456;2023-05-24T06:05:07;18.40;47.93
22917;DHT22;11624;53.250;7.456;2023-05-24T06:07:36;18.48;48.05
22917;DHT22;11624;53.250;7.456;2023-05-24T06:10:05;18.58;47.66
22917;DHT22;11624;53.250;7.456;2023-05-24T06:12:34;18.59;47.15
22917;DHT22;11624;53.250;7.456;2023-05-24T06:15:04;18.63;47.18
22917;DHT22;11624;53.250;7.456;2023-05-24T06:17:32;18.57;46.97
22917;DHT22;11624;53.250;7.456;2023-05-24T06:20:02;18.63;46.93
22917;DHT22;11624;53.250;7.456;2023-05-24T06:22:37;18.65;46.96
22917;DHT22;11624;53.250;7.456;2023-05-24T06:25:08;18.61;47.02
22917;DHT22;11624;53.250;7.456;2023-05-24T06:27:41;18.63;47.41
22917;DHT22;11624;53.250;7.456;2023-05-24T06:30:09;18.73;46.83
22917;DHT22;11624;53.250;7.456;2023-05-24T06:32:38;18.69;46.57
22917;DHT22;11624;53.250;7.456;2023-05-24T06:35:08;18.67;46.47
22917;DHT22;11624;53.250;7.456;2023-05-24T06:37:37;18.63;46.51
22917;DHT22;11624;53.250;7.456;2023-05-24T06:40:06;18.66;46.60
22917;DHT22;11624;53.250;7.456;2023-05-24T06:42:37;18.65;46.27
22917;DHT22;11624;53.250;7.456;2023-05-24T06:45:06;18.57;46.12
22917;DHT22;11624;53.250;7.456;2023-05-24T06:47:34;18.57;46.18
22917;DHT22;11624;53.250;7.456;2023-05-24T06:50:04;18.58;46.22
22917;DHT22;11624;53.250;7.456;2023-05-24T06:52:34;18.61;46.59
22917;DHT22;11624;53.250;7.456;2023-05-24T06:55:02;18.71;46.62
22917;DHT22;11624;53.250;7.456;2023-05-24T06:57:30;18.84;46.80
22917;DHT22;11624;53.250;7.456;2023-05-24T06:59:58;19.01;46.79
22917;DHT22;11624;53.250;7.456;2023-05-24T07:02:26;19.13;46.00
22917;DHT22;11624;53.250;7.456;2023-05-24T07:04:55;19.09;45.61
22917;DHT22;11624;53.250;7.456;2023-05-24T07:07:24;19.05;45.38
22917;DHT22;11624;53.250;7.456;2023-05-24T07:09:53;18.97;45.34
22917;DHT22;11624;53.250;7.456;2023-05-24T07:12:22;18.91;45.26
22917;DHT22;11624;53.250;7.456;2023-05-24T07:14:50;18.91;45.29
22917;DHT22;11624;53.250;7.456;2023-05-24T07:17:18;18.92;46.14
22917;DHT22;11624;53.250;7.456;2023-05-24T07:19:47;19.03;45.93
22917;DHT22;11624;53.250;7.456;2023-05-24T07:22:15;19.09;45.93
22917;DHT22;11624;53.250;7.456;2023-05-24T07:24:43;19.21;45.95
22917;DHT22;11624;53.250;7.456;2023-05-24T07:27:12;19.35;45.76
22917;DHT22;11624;53.250;7.456;2023-05-24T07:29:40;19.46;45.72
22917;DHT22;11624;53.250;7.456;2023-05-24T07:32:10;19.53;45.37
22917;DHT22;11624;53.250;7.456;2023-05-24T07:34:38;19.54;45.06
22917;DHT22;11624;53.250;7.456;2023-05-24T07:37:07;19.50;45.03
22917;DHT22;11624;53.250;7.456;2023-05-24T07:39:35;19.44;45.46
22917;DHT22;11624;53.250;7.456;2023-05-24T07:42:04;19.43;45.57
22917;DHT22;11624;53.250;7.456;2023-05-24T07:44:33;19.47;45.65
22917;DHT22;11624;53.250;7.456;2023-05-24T07:47:01;19.52;44.87
22917;DHT22;11624;53.250;7.456;2023-05-24T07:49:30;19.62;44.67
22917;DHT22;11624;53.250;7.456;2023-05-24T07:51:58;19.79;44.64
22917;DHT22;11624;53.250;7.456;2023-05-24T07:54:26;19.97;45.06
22917;DHT22;11624;53.250;7.456;2023-05-24T07:56:54;20.18;44.80
22917;DHT22;11624;53.250;7.456;2023-05-24T07:59:23;20.34;42.26
22917;DHT22;11624;53.250;7.456;2023-05-24T08:01:52;20.26;42.17
22917;DHT22;11624;53.250;7.456;2023-05-24T08:04:20;20.19;42.40
22917;DHT22;11624;53.250;7.456;2023-05-24T08:06:49;20.12;42.39
22917;DHT22;11624;53.250;7.456;2023-05-24T08:09:17;19.99;42.71
22917;DHT22;11624;53.250;7.456;2023-05-24T08:11:46;19.85;42.83
22917;DHT22;11624;53.250;7.456;2023-05-24T08:14:14;19.77;43.21
22917;DHT22;11624;53.250;7.456;2023-05-24T08:16:42;19.77;43.61
22917;DHT22;11624;53.250;7.456;2023-05-24T08:19:12;19.85;43.75
22917;DHT22;11624;53.250;7.456;2023-05-24T08:21:40;19.96;43.93
22917;DHT22;11624;53.250;7.456;2023-05-24T08:24:09;20.13;43.64
22917;DHT22;11624;53.250;7.456;2023-05-24T08:26:37;20.29;43.51
22917;DHT22;11624;53.250;7.456;2023-05-24T08:29:05;20.46;42.89
22917;DHT22;11624;53.250;7.456;2023-05-24T08:31:34;20.63;42.67
22917;DHT22;11624;53.250;7.456;2023-05-24T08:34:04;20.85;42.58
22917;DHT22;11624;53.250;7.456;2023-05-24T08:36:33;21.01;41.48
22917;DHT22;11624;53.250;7.456;2023-05-24T08:39:03;21.11;41.39
22917;DHT22;11624;53.250;7.456;2023-05-24T08:41:32;21.31;40.78
22917;DHT22;11624;53.250;7.456;2023-05-24T08:44:04;21.70;40.54
22917;DHT22;11624;53.250;7.456;2023-05-24T08:46:35;22.16;39.12
22917;DHT22;11624;53.250;7.456;2023-05-24T08:49:03;22.70;37.61
22917;DHT22;11624;53.250;7.456;2023-05-24T08:51:34;23.18;37.70
22917;DHT22;11624;53.250;7.456;2023-05-24T08:54:04;23.54;36.85
22917;DHT22;11624;53.250;7.456;2023-05-24T08:56:32;23.32;35.23
22917;DHT22;11624;53.250;7.456;2023-05-24T08:59:01;23.09;36.02
22917;DHT22;11624;53.250;7.456;2023-05-24T09:01:29;23.02;36.26
22917;DHT22;11624;53.250;7.456;2023-05-24T09:04:01;23.14;36.23
22917;DHT22;11624;53.250;7.456;2023-05-24T09:06:30;23.27;34.46
22917;DHT22;11624;53.250;7.456;2023-05-24T09:09:02;23.39;35.24
22917;DHT22;11624;53.250;7.456;2023-05-24T09:11:31;23.53;33.70
22917;DHT22;11624;53.250;7.456;2023-05-24T09:14:01;23.51;34.33
22917;DHT22;11624;53.250;7.456;2023-05-24T09:16:29;23.31;35.05
22917;DHT22;11624;53.250;7.456;2023-05-24T09:18:57;23.20;34.68
22917;DHT22;11624;53.250;7.456;2023-05-24T09:21:27;23.03;34.12
22917;DHT22;11624;53.250;7.456;2023-05-24T09:23:55;23.16;33.92
22917;DHT22;11624;53.250;7.456;2023-05-24T09:26:26;23.68;34.07
22917;DHT22;11624;53.250;7.456;2023-05-24T09:28:55;24.02;33.65
22917;DHT22;11624;53.250;7.456;2023-05-24T09:31:31;24.00;33.73
22917;DHT22;11624;53.250;7.456;2023-05-24T09:34:00;23.67;33.67
22917;DHT22;11624;53.250;7.456;2023-05-24T09:36:28;23.34;34.31
22917;DHT22;11624;53.250;7.456;2023-05-24T09:39:06;23.11;34.18
22917;DHT22;11624;53.250;7.456;2023-05-24T09:41:37;22.96;34.99
22917;DHT22;11624;53.250;7.456;2023-05-24T09:44:06;23.10;36.01
22917;DHT22;11624;53.250;7.456;2023-05-24T09:46:35;23.62;35.08
22917;DHT22;11624;53.250;7.456;2023-05-24T09:49:04;24.11;32.69
22917;DHT22;11624;53.250;7.456;2023-05-24T09:51:36;24.24;31.49
22917;DHT22;11624;53.250;7.456;2023-05-24T09:54:05;24.03;31.57
22917;DHT22;11624;53.250;7.456;2023-05-24T09:56:33;23.72;32.26
22917;DHT22;11624;53.250;7.456;2023-05-24T09:59:07;23.38;32.28
22917;DHT22;11624;53.250;7.456;2023-05-24T10:01:35;23.02;33.84
22917;DHT22;11624;53.250;7.456;2023-05-24T10:04:04;22.84;34.45
22917;DHT22;11624;53.250;7.456;2023-05-24T10:06:36;22.71;34.09
22917;DHT22;11624;53.250;7.456;2023-05-24T10:09:05;22.63;35.18
22917;DHT22;11624;53.250;7.456;2023-05-24T10:11:34;22.68;35.69
22917;DHT22;11624;53.250;7.456;2023-05-24T10:14:03;22.71;34.59
22917;DHT22;11624;53.250;7.456;2023-05-24T10:16:34;22.53;35.00
22917;DHT22;11624;53.250;7.456;2023-05-24T10:19:04;22.40;35.85
22917;DHT22;11624;53.250;7.456;2023-05-24T10:21:35;22.22;36.70
22917;DHT22;11624;53.250;7.456;2023-05-24T10:24:08;22.13;36.56
22917;DHT22;11624;53.250;7.456;2023-05-24T10:26:38;22.08;36.09
22917;DHT22;11624;53.250;7.456;2023-05-24T10:29:11;22.07;35.66
22917;DHT22;11624;53.250;7.456;2023-05-24T10:31:43;22.11;36.02
22917;DHT22;11624;53.250;7.456;2023-05-24T10:34:12;22.22;35.71
22917;DHT22;11624;53.250;7.456;2023-05-24T10:36:41;22.29;35.24
22917;DHT22;11624;53.250;7.456;2023-05-24T10:39:11;22.43;35.21
22917;DHT22;11624;53.250;7.456;2023-05-24T10:41:39;22.61;35.23
22917;DHT22;11624;53.250;7.456;2023-05-24T10:44:11;22.85;36.04
22917;DHT22;11624;53.250;7.456;2023-05-24T10:47:10;23.08;34.76
22917;DHT22;11624;53.250;7.456;2023-05-24T10:49:47;23.07;34.28
22917;DHT22;11624;53.250;7.456;2023-05-24T10:52:17;23.05;34.42
22917;DHT22;11624;53.250;7.456;2023-05-24T10:55:01;23.07;34.36
22917;DHT22;11624;53.250;7.456;2023-05-24T10:57:31;23.24;34.53
22917;DHT22;11624;53.250;7.456;2023-05-24T11:00:24;23.38;34.65
22917;DHT22;11624;53.250;7.456;2023-05-24T11:03:01;23.40;34.81
22917;DHT22;11624;53.250;7.456;2023-05-24T11:05:34;23.26;36.11
22917;DHT22;11624;53.250;7.456;2023-05-24T11:08:05;23.41;36.03
22917;DHT22;11624;53.250;7.456;2023-05-24T11:10:35;23.41;35.24
22917;DHT22;11624;53.250;7.456;2023-05-24T11:13:06;23.17;35.05
22917;DHT22;11624;53.250;7.456;2023-05-24T11:15:34;22.93;35.40
22917;DHT22;11624;53.250;7.456;2023-05-24T11:18:16;22.71;35.91
22917;DHT22;11624;53.250;7.456;2023-05-24T11:20:49;22.69;35.80
22917;DHT22;11624;53.250;7.456;2023-05-24T11:23:18;22.72;35.72
22917;DHT22;11624;53.250;7.456;2023-05-24T11:25:46;22.75;35.78
22917;DHT22;11624;53.250;7.456;2023-05-24T11:28:15;22.66;35.89
22917;DHT22;11624;53.250;7.456;2023-05-24T11:30:45;22.63;36.17
22917;DHT22;11624;53.250;7.456;2023-05-24T11:33:16;22.72;35.80
22917;DHT22;11624;53.250;7.456;2023-05-24T11:35:46;22.79;36.13
22917;DHT22;11624;53.250;7.456;2023-05-24T11:38:15;22.93;35.21
22917;DHT22;11624;53.250;7.456;2023-05-24T11:40:44;23.00;34.93
22917;DHT22;11624;53.250;7.456;2023-05-24T11:43:15;22.94;34.30
22917;DHT22;11624;53.250;7.456;2023-05-24T11:45:44;22.87;34.31
22917;DHT22;11624;53.250;7.456;2023-05-24T11:48:17;22.92;34.83
22917;DHT22;11624;53.250;7.456;2023-05-24T11:50:47;22.91;34.61
22917;DHT22;11624;53.250;7.456;2023-05-24T11:53:18;22.86;34.84
22917;DHT22;11624;53.250;7.456;2023-05-24T11:55:46;22.91;35.64
22917;DHT22;11624;53.250;7.456;2023-05-24T11:58:21;23.02;34.69
22917;DHT22;11624;53.250;7.456;2023-05-24T12:00:50;23.06;34.70
22917;DHT22;11624;53.250;7.456;2023-05-24T12:03:20;23.11;34.86
22917;DHT22;11624;53.250;7.456;2023-05-24T12:05:49;23.20;35.12
22917;DHT22;11624;53.250;7.456;2023-05-24T12:08:18;23.37;34.93
22917;DHT22;11624;53.250;7.456;2023-05-24T12:10:47;23.54;34.55
22917;DHT22;11624;53.250;7.456;2023-05-24T12:13:19;23.66;33.65
22917;DHT22;11624;53.250;7.456;2023-05-24T12:15:49;23.71;33.39
22917;DHT22;11624;53.250;7.456;2023-05-24T12:18:24;23.73;33.61
22917;DHT22;11624;53.250;7.456;2023-05-24T12:20:53;23.64;33.22
22917;DHT22;11624;53.250;7.456;2023-05-24T12:23:24;23.72;33.44
22917;DHT22;11624;53.250;7.456;2023-05-24T12:25:57;23.80;32.96
22917;DHT22;11624;53.250;7.456;2023-05-24T12:28:25;24.01;33.02
22917;DHT22;11624;53.250;7.456;2023-05-24T12:30:54;24.18;32.68
22917;DHT22;11624;53.250;7.456;2023-05-24T12:33:24;24.31;32.11
22917;DHT22;11624;53.250;7.456;2023-05-24T12:35:52;24.34;31.67
22917;DHT22;11624;53.250;7.456;2023-05-24T12:38:23;24.78;32.31
22917;DHT22;11624;53.250;7.456;2023-05-24T12:40:52;25.46;30.44
22917;DHT22;11624;53.250;7.456;2023-05-24T12:43:36;25.90;30.19
22917;DHT22;11624;53.250;7.456;2023-05-24T12:46:05;25.76;29.61
22917;DHT22;11624;53.250;7.456;2023-05-24T12:48:35;25.71;29.61
22917;DHT22;11624;53.250;7.456;2023-05-24T12:51:03;25.47;29.96
22917;DHT22;11624;53.250;7.456;2023-05-24T12:53:31;25.28;30.38
22917;DHT22;11624;53.250;7.456;2023-05-24T12:55:59;25.43;30.90
22917;DHT22;11624;53.250;7.456;2023-05-24T12:58:27;25.83;30.72
22917;DHT22;11624;53.250;7.456;2023-05-24T13:00:56;26.02;30.02
22917;DHT22;11624;53.250;7.456;2023-05-24T13:03:24;25.74;29.71
22917;DHT22;11624;53.250;7.456;2023-05-24T13:05:53;25.42;30.97
22917;DHT22;11624;53.250;7.456;2023-05-24T13:08:22;25.25;31.23
22917;DHT22;11624;53.250;7.456;2023-05-24T13:10:50;24.98;31.42
22917;DHT22;11624;53.250;7.456;2023-05-24T13:13:19;24.62;31.45
22917;DHT22;11624;53.250;7.456;2023-05-24T13:15:47;24.35;32.05
22917;DHT22;11624;53.250;7.456;2023-05-24T13:18:16;24.23;32.55
22917;DHT22;11624;53.250;7.456;2023-05-24T13:20:46;24.18;32.80
22917;DHT22;11624;53.250;7.456;2023-05-24T13:23:16;24.16;32.51
22917;DHT22;11624;53.250;7.456;2023-05-24T13:25:44;24.08;32.95
22917;DHT22;11624;53.250;7.456;2023-05-24T13:28:12;24.05;33.46
22917;DHT22;11624;53.250;7.456;2023-05-24T13:30:41;24.11;34.17
22917;DHT22;11624;53.250;7.456;2023-05-24T13:33:09;24.06;33.34
22917;DHT22;11624;53.250;7.456;2023-05-24T13:35:37;23.84;33.49
22917;DHT22;11624;53.250;7.456;2023-05-24T13:38:06;23.65;33.76
22917;DHT22;11624;53.250;7.456;2023-05-24T13:40:36;23.60;33.75
22917;DHT22;11624;53.250;7.456;2023-05-24T13:43:07;23.53;34.24
22917;DHT22;11624;53.250;7.456;2023-05-24T13:45:35;23.32;35.04
22917;DHT22;11624;53.250;7.456;2023-05-24T13:48:03;23.05;35.05
22917;DHT22;11624;53.250;7.456;2023-05-24T13:50:33;23.05;35.79
22917;DHT22;11624;53.250;7.456;2023-05-24T13:53:02;23.07;35.62
22917;DHT22;11624;53.250;7.456;2023-05-24T13:55:32;23.00;35.02
22917;DHT22;11624;53.250;7.456;2023-05-24T13:58:02;22.90;35.82
22917;DHT22;11624;53.250;7.456;2023-05-24T14:00:31;23.00;36.48
22917;DHT22;11624;53.250;7.456;2023-05-24T14:03:01;23.17;35.72
22917;DHT22;11624;53.250;7.456;2023-05-24T14:05:31;23.18;35.23
22917;DHT22;11624;53.250;7.456;2023-05-24T14:07:59;23.11;35.76
22917;DHT22;11624;53.250;7.456;2023-05-24T14:10:33;23.20;35.76
22917;DHT22;11624;53.250;7.456;2023-05-24T14:13:05;23.36;35.21
22917;DHT22;11624;53.250;7.456;2023-05-24T14:15:36;23.49;34.80
22917;DHT22;11624;53.250;7.456;2023-05-24T14:18:05;23.35;34.65
22917;DHT22;11624;53.250;7.456;2023-05-24T14:20:34;23.23;34.57
22917;DHT22;11624;53.250;7.456;2023-05-24T14:23:05;23.14;34.94
22917;DHT22;11624;53.250;7.456;2023-05-24T14:25:33;23.13;35.20
22917;DHT22;11624;53.250;7.456;2023-05-24T14:28:01;23.11;35.25
22917;DHT22;11624;53.250;7.456;2023-05-24T14:30:31;23.12;35.02
22917;DHT22;11624;53.250;7.456;2023-05-24T14:32:59;23.06;34.94
22917;DHT22;11624;53.250;7.456;2023-05-24T14:35:28;23.02;34.99
22917;DHT22;11624;53.250;7.456;2023-05-24T14:37:56;23.10;35.27
22917;DHT22;11624;53.250;7.456;2023-05-24T14:40:24;23.16;34.75
22917;DHT22;11624;53.250;7.456;2023-05-24T14:42:52;23.14;34.70
22917;DHT22;11624;53.250;7.456;2023-05-24T14:45:21;23.18;34.96
22917;DHT22;11624;53.250;7.456;2023-05-24T14:47:50;23.11;35.58
22917;DHT22;11624;53.250;7.456;2023-05-24T14:50:19;22.90;36.69
22917;DHT22;11624;53.250;7.456;2023-05-24T14:52:47;22.76;37.01
22917;DHT22;11624;53.250;7.456;2023-05-24T14:55:18;22.78;37.41
22917;DHT22;11624;53.250;7.456;2023-05-24T14:57:46;22.73;37.02
22917;DHT22;11624;53.250;7.456;2023-05-24T15:00:16;22.60;37.39
22917;DHT22;11624;53.250;7.456;2023-05-24T15:02:49;22.58;37.46
22917;DHT22;11624;53.250;7.456;2023-05-24T15:05:18;22.57;37.80
22917;DHT22;11624;53.250;7.456;2023-05-24T15:07:46;22.63;38.42
22917;DHT22;11624;53.250;7.456;2023-05-24T15:10:14;22.60;37.47
22917;DHT22;11624;53.250;7.456;2023-05-24T15:12:43;22.54;38.00
22917;DHT22;11624;53.250;7.456;2023-05-24T15:15:11;22.56;37.79
22917;DHT22;11624;53.250;7.456;2023-05-24T15:17:39;22.60;37.58
22917;DHT22;11624;53.250;7.456;2023-05-24T15:20:09;22.57;37.21
22917;DHT22;11624;53.250;7.456;2023-05-24T15:22:37;22.56;37.18
22917;DHT22;11624;53.250;7.456;2023-05-24T15:25:07;22.60;36.89
22917;DHT22;11624;53.250;7.456;2023-05-24T15:27:35;22.53;36.48
22917;DHT22;11624;53.250;7.456;2023-05-24T15:30:04;22.50;36.53
22917;DHT22;11624;53.250;7.456;2023-05-24T15:32:33;22.46;37.11
22917;DHT22;11624;53.250;7.456;2023-05-24T15:35:01;22.39;37.32
22917;DHT22;11624;53.250;7.456;2023-05-24T15:37:31;22.34;37.47
22917;DHT22;11624;53.250;7.456;2023-05-24T15:39:59;22.24;37.53
22917;DHT22;11624;53.250;7.456;2023-05-24T15:42:27;22.12;37.97
22917;DHT22;11624;53.250;7.456;2023-05-24T15:44:57;22.08;38.59